sensor_id;sensor_type;location;lat;lon;timestamp;pressure;altitude;pressure_sealevel;temperature;humidity
11712;BME280;5912;51.034;6.984;2023-02-15T00:01:47;76072.47;;;-142.13;67.72
11712;BME280;5912;51.034;6.984;2023-02-15T00:04:14;75685.97;;;-142.13;67.56
11712;BME280;5912;51.034;6.984;2023-02-15T00:06:39;75778.56;;;-142.13;67.64
11712;BME280;5912;51.034;6.984;2023-02-15T00:09:05;75603.44;;;-142.13;67.67
11712;BME280;5912;51.034;6.984;2023-02-15T00:11:30;75494.75;;;-142.13;68.06
11712;BME280;5912;51.034;6.984;2023-02-15T00:16:44;75758.44;;;-142.13;67.59
11712;BME280;5912;51.034;6.984;2023-02-15T00:19:11;76008.06;;;-142.13;68.03
11712;BME280;5912;51.034;6.984;2023-02-15T00:21:37;75961.75;;;-142.13;68.42
11712;BME280;5912;51.034;6.984;2023-02-15T00:24:06;75768.50;;;-142.13;68.38
11712;BME280;5912;51.034;6.984;2023-02-15T00:26:32;75939.63;;;-142.13;68.25
11712;BME280;5912;51.034;6.984;2023-02-15T00:28:58;75726.25;;;-142.13;68.56
11712;BME280;5912;51.034;6.984;2023-02-15T00:31:24;75915.47;;;-142.13;68.32
11712;BME280;5912;51.034;6.984;2023-02-15T00:33:50;76273.81;;;-142.13;67.99
11712;BME280;5912;51.034;6.984;2023-02-15T00:36:16;76028.19;;;-142.13;68.16
11712;BME280;5912;51.034;6.984;2023-02-15T00:38:41;76028.19;;;-142.13;68.56
11712;BME280;5912;51.034;6.984;2023-02-15T00:41:07;76056.38;;;-142.13;68.50
11712;BME280;5912;51.034;6.984;2023-02-15T00:43:34;75752.41;;;-142.13;68.47
11712;BME280;5912;51.034;6.984;2023-02-15T00:45:59;75973.84;;;-142.13;68.55
11712;BME280;5912;51.034;6.984;2023-02-15T00:48:25;76044.31;;;-142.13;68.62
11712;BME280;5912;51.034;6.984;2023-02-15T00:50:55;76084.56;;;-142.13;68.96
11712;BME280;5912;51.034;6.984;2023-02-15T00:53:22;76185.22;;;-142.13;69.10
11712;BME280;5912;51.034;6.984;2023-02-15T00:55:47;76306.00;;;-142.13;68.78
11712;BME280;5912;51.034;6.984;2023-02-15T00:58:13;76126.84;;;-142.13;69.12
11712;BME280;5912;51.034;6.984;2023-02-15T01:00:40;76036.25;;;-142.13;69.31
11712;BME280;5912;51.034;6.984;2023-02-15T01:03:06;75867.16;;;-142.13;69.09
11712;BME280;5912;51.034;6.984;2023-02-15T01:05:31;75887.28;;;-142.13;69.36
11712;BME280;5912;51.034;6.984;2023-02-15T01:07:57;75883.25;;;-142.13;69.31
11712;BME280;5912;51.034;6.984;2023-02-15T01:10:24;75925.53;;;-142.13;69.47
11712;BME280;5912;51.034;6.984;2023-02-15T01:16:11;75987.94;;;-142.13;69.52
11712;BME280;5912;51.034;6.984;2023-02-15T01:18:36;75969.81;;;-142.13;69.48
11712;BME280;5912;51.034;6.984;2023-02-15T01:21:22;76028.19;;;-142.13;69.63
11712;BME280;5912;51.034;6.984;2023-02-15T01:23:48;75987.94;;;-142.13;69.65
11712;BME280;5912;51.034;6.984;2023-02-15T01:26:14;75901.38;;;-142.13;69.15
11712;BME280;5912;51.034;6.984;2023-02-15T01:28:40;76006.06;;;-142.13;69.70
11712;BME280;5912;51.034;6.984;2023-02-15T01:31:12;76066.44;;;-142.13;69.90
11712;BME280;5912;51.034;6.984;2023-02-15T01:33:40;76008.06;;;-142.13;69.89
11712;BME280;5912;51.034;6.984;2023-02-15T01:36:06;75998.00;;;-142.13;69.66
11712;BME280;5912;51.034;6.984;2023-02-15T01:38:32;75814.81;;;-142.13;69.74
11712;BME280;5912;51.034;6.984;2023-02-15T01:40:57;76038.25;;;-142.13;69.78
11712;BME280;5912;51.034;6.984;2023-02-15T01:43:48;75989.94;;;-142.13;69.62
11712;BME280;5912;51.034;6.984;2023-02-15T01:46:16;76044.31;;;-142.13;69.86
11712;BME280;5912;51.034;6.984;2023-02-15T01:48:54;75931.56;;;-142.13;69.83
11712;BME280;5912;51.034;6.984;2023-02-15T01:51:23;75730.25;;;-142.13;69.94
11712;BME280;5912;51.034;6.984;2023-02-15T01:54:09;75792.66;;;-142.13;69.99
11712;BME280;5912;51.034;6.984;2023-02-15T01:56:38;75744.34;;;-142.13;69.79
11712;BME280;5912;51.034;6.984;2023-02-15T01:59:09;75867.16;;;-142.13;70.21
11712;BME280;5912;51.034;6.984;2023-02-15T02:01:37;75621.56;;;-142.13;70.40
11712;BME280;5912;51.034;6.984;2023-02-15T02:04:38;75617.53;;;-142.13;70.21
11712;BME280;5912;51.034;6.984;2023-02-15T02:07:06;75595.41;;;-142.13;69.95
11712;BME280;5912;51.034;6.984;2023-02-15T02:09:32;75800.72;;;-142.13;70.15
11712;BME280;5912;51.034;6.984;2023-02-15T02:11:57;75671.88;;;-142.13;70.16
11712;BME280;5912;51.034;6.984;2023-02-15T02:14:24;75770.53;;;-142.13;70.34
11712;BME280;5912;51.034;6.984;2023-02-15T02:17:07;75780.59;;;-142.13;70.21
11712;BME280;5912;51.034;6.984;2023-02-15T02:25:28;75526.97;;;-142.13;70.82
11712;BME280;5912;51.034;6.984;2023-02-15T02:28:21;75400.16;;;-142.13;70.68
11712;BME280;5912;51.034;6.984;2023-02-15T02:34:03;75088.19;;;-142.13;70.91
11712;BME280;5912;51.034;6.984;2023-02-15T02:39:06;75311.59;;;-142.13;70.79
11712;BME280;5912;51.034;6.984;2023-02-15T02:41:44;74778.25;;;-142.13;71.01
11712;BME280;5912;51.034;6.984;2023-02-15T02:44:43;75170.69;;;-142.13;70.96
11712;BME280;5912;51.034;6.984;2023-02-15T02:47:13;75221.03;;;-142.13;70.86
11712;BME280;5912;51.034;6.984;2023-02-15T02:49:42;75146.56;;;-142.13;71.09
11712;BME280;5912;51.034;6.984;2023-02-15T02:52:42;75374.00;;;-142.13;70.60
11712;BME280;5912;51.034;6.984;2023-02-15T02:57:46;75388.06;;;-142.13;71.01
11712;BME280;5912;51.034;6.984;2023-02-15T03:00:13;75369.97;;;-142.13;71.07
11712;BME280;5912;51.034;6.984;2023-02-15T03:02:43;75118.38;;;-142.13;71.09
11712;BME280;5912;51.034;6.984;2023-02-15T03:05:15;75309.56;;;-142.13;71.15
11712;BME280;5912;51.034;6.984;2023-02-15T03:07:42;75084.16;;;-142.13;71.07
11712;BME280;5912;51.034;6.984;2023-02-15T03:10:09;74850.69;;;-142.13;71.15
11712;BME280;5912;51.034;6.984;2023-02-15T03:12:38;74913.09;;;-142.13;71.15
11712;BME280;5912;51.034;6.984;2023-02-15T03:15:15;74985.53;;;-142.13;71.49
11712;BME280;5912;51.034;6.984;2023-02-15T03:17:44;74768.19;;;-142.13;71.49
11712;BME280;5912;51.034;6.984;2023-02-15T03:20:16;74717.88;;;-142.13;71.40
11712;BME280;5912;51.034;6.984;2023-02-15T03:22:49;74687.69;;;-142.13;71.56
11712;BME280;5912;51.034;6.984;2023-02-15T03:25:25;75031.84;;;-142.13;71.51
11712;BME280;5912;51.034;6.984;2023-02-15T03:27:55;74818.50;;;-142.13;71.42
11712;BME280;5912;51.034;6.984;2023-02-15T03:30:21;75154.59;;;-142.13;71.54
11712;BME280;5912;51.034;6.984;2023-02-15T03:32:49;74905.03;;;-142.13;71.45
11712;BME280;5912;51.034;6.984;2023-02-15T03:35:16;74611.22;;;-142.13;71.91
11712;BME280;5912;51.034;6.984;2023-02-15T03:37:49;74647.44;;;-142.13;71.50
11712;BME280;5912;51.034;6.984;2023-02-15T03:43:50;74526.69;;;-142.13;71.73
11712;BME280;5912;51.034;6.984;2023-02-15T03:46:42;74414.00;;;-142.13;71.68
11712;BME280;5912;51.034;6.984;2023-02-15T03:49:22;74454.25;;;-142.13;72.04
11712;BME280;5912;51.034;6.984;2023-02-15T03:51:51;74311.38;;;-142.13;72.26
11712;BME280;5912;51.034;6.984;2023-02-15T03:54:29;74025.66;;;-142.13;71.90
11712;BME280;5912;51.034;6.984;2023-02-15T03:57:38;74281.19;;;-142.13;71.74
11712;BME280;5912;51.034;6.984;2023-02-15T04:00:24;74162.47;;;-142.13;71.99
11712;BME280;5912;51.034;6.984;2023-02-15T04:05:40;74442.19;;;-142.13;71.66
11712;BME280;5912;51.034;6.984;2023-02-15T04:08:06;74277.16;;;-142.13;72.32
11712;BME280;5912;51.034;6.984;2023-02-15T04:10:31;74228.88;;;-142.13;72.38
11712;BME280;5912;51.034;6.984;2023-02-15T04:13:15;73882.78;;;-142.13;72.38
11712;BME280;5912;51.034;6.984;2023-02-15T04:15:41;73760.06;;;-142.13;72.29
11712;BME280;5912;51.034;6.984;2023-02-15T04:18:25;73152.50;;;-142.13;71.97
11712;BME280;5912;51.034;6.984;2023-02-15T04:21:08;73816.41;;;-142.13;72.31
11712;BME280;5912;51.034;6.984;2023-02-15T04:23:52;73987.41;;;-142.13;72.24
11712;BME280;5912;51.034;6.984;2023-02-15T04:26:36;74353.63;;;-142.13;72.25
11712;BME280;5912;51.034;6.984;2023-02-15T04:29:02;74059.84;;;-142.13;72.48
11712;BME280;5912;51.034;6.984;2023-02-15T04:31:27;74462.31;;;-142.13;72.48
11712;BME280;5912;51.034;6.984;2023-02-15T04:33:52;73939.13;;;-142.13;72.03
11712;BME280;5912;51.034;6.984;2023-02-15T04:36:17;73174.63;;;-142.13;72.05
11712;BME280;5912;51.034;6.984;2023-02-15T04:38:43;72864.84;;;-142.13;72.04
11712;BME280;5912;51.034;6.984;2023-02-15T04:41:08;73581.00;;;-142.13;72.38
11712;BME280;5912;51.034;6.984;2023-02-15T04:43:35;73782.19;;;-142.13;71.84
11712;BME280;5912;51.034;6.984;2023-02-15T04:46:00;74156.44;;;-142.13;71.94
11712;BME280;5912;51.034;6.984;2023-02-15T04:48:26;73782.19;;;-142.13;71.98
11712;BME280;5912;51.034;6.984;2023-02-15T04:50:51;73500.53;;;-142.13;72.06
11712;BME280;5912;51.034;6.984;2023-02-15T04:53:16;73327.50;;;-142.13;72.40
11712;BME280;5912;51.034;6.984;2023-02-15T04:55:43;73528.69;;;-142.13;72.46
11712;BME280;5912;51.034;6.984;2023-02-15T04:58:08;73128.34;;;-142.13;72.00
11712;BME280;5912;51.034;6.984;2023-02-15T05:00:33;73359.69;;;-142.13;72.20
11712;BME280;5912;51.034;6.984;2023-02-15T05:02:59;73818.41;;;-142.13;72.23
11712;BME280;5912;51.034;6.984;2023-02-15T05:05:24;72945.31;;;-142.13;72.31
11712;BME280;5912;51.034;6.984;2023-02-15T05:07:49;72949.31;;;-142.13;72.68
11712;BME280;5912;51.034;6.984;2023-02-15T05:10:15;73106.22;;;-142.13;72.14
11712;BME280;5912;51.034;6.984;2023-02-15T05:12:40;73589.06;;;-142.13;72.54
11712;BME280;5912;51.034;6.984;2023-02-15T05:15:05;72621.44;;;-142.13;72.54
11712;BME280;5912;51.034;6.984;2023-02-15T05:17:31;73534.72;;;-142.13;72.29
11712;BME280;5912;51.034;6.984;2023-02-15T05:19:56;73864.69;;;-142.13;72.26
11712;BME280;5912;51.034;6.984;2023-02-15T05:22:21;73432.13;;;-142.13;72.92
11712;BME280;5912;51.034;6.984;2023-02-15T05:24:47;73359.69;;;-142.13;72.30
11712;BME280;5912;51.034;6.984;2023-02-15T05:27:31;73619.22;;;-142.13;72.47
11712;BME280;5912;51.034;6.984;2023-02-15T05:30:15;73383.84;;;-142.13;72.85
11712;BME280;5912;51.034;6.984;2023-02-15T05:32:40;73492.47;;;-142.13;72.93
11712;BME280;5912;51.034;6.984;2023-02-15T05:35:06;73474.38;;;-142.13;72.82
11712;BME280;5912;51.034;6.984;2023-02-15T05:37:32;73234.97;;;-142.13;72.50
11712;BME280;5912;51.034;6.984;2023-02-15T05:39:58;73754.03;;;-142.13;72.54
11712;BME280;5912;51.034;6.984;2023-02-15T05:42:23;73273.19;;;-142.13;72.49
11712;BME280;5912;51.034;6.984;2023-02-15T05:44:48;73446.22;;;-142.13;72.15
11712;BME280;5912;51.034;6.984;2023-02-15T05:47:13;73613.19;;;-142.13;72.20
11712;BME280;5912;51.034;6.984;2023-02-15T05:49:39;74084.00;;;-142.13;72.68
11712;BME280;5912;51.034;6.984;2023-02-15T05:52:04;73844.56;;;-142.13;72.43
11712;BME280;5912;51.034;6.984;2023-02-15T05:54:29;73570.94;;;-142.13;72.24
11712;BME280;5912;51.034;6.984;2023-02-15T05:56:55;73194.75;;;-142.13;72.33
11712;BME280;5912;51.034;6.984;2023-02-15T05:59:20;73456.28;;;-142.13;72.82
11712;BME280;5912;51.034;6.984;2023-02-15T06:01:45;73090.13;;;-142.13;72.05
11712;BME280;5912;51.034;6.984;2023-02-15T06:04:11;73762.06;;;-142.13;72.08
11712;BME280;5912;51.034;6.984;2023-02-15T06:06:37;73142.44;;;-142.13;72.34
11712;BME280;5912;51.034;6.984;2023-02-15T06:09:02;72675.75;;;-142.13;72.00
11712;BME280;5912;51.034;6.984;2023-02-15T06:11:28;73377.81;;;-142.13;72.50
11712;BME280;5912;51.034;6.984;2023-02-15T06:13:53;73476.38;;;-142.13;72.60
11712;BME280;5912;51.034;6.984;2023-02-15T06:16:18;73536.75;;;-142.13;72.96
11712;BME280;5912;51.034;6.984;2023-02-15T06:18:43;73647.41;;;-142.13;72.84
11712;BME280;5912;51.034;6.984;2023-02-15T06:21:09;72901.03;;;-142.13;72.29
11712;BME280;5912;51.034;6.984;2023-02-15T06:23:34;72840.69;;;-142.13;72.60
11712;BME280;5912;51.034;6.984;2023-02-15T06:25:59;73146.47;;;-142.13;72.24
11712;BME280;5912;51.034;6.984;2023-02-15T06:28:25;73162.56;;;-142.13;72.65
11712;BME280;5912;51.034;6.984;2023-02-15T06:30:51;73226.94;;;-142.13;72.61
11712;BME280;5912;51.034;6.984;2023-02-15T06:33:17;73196.75;;;-142.13;72.35
11712;BME280;5912;51.034;6.984;2023-02-15T06:35:42;74035.72;;;-142.13;73.12
11712;BME280;5912;51.034;6.984;2023-02-15T06:38:08;73850.59;;;-142.13;72.74
11712;BME280;5912;51.034;6.984;2023-02-15T06:40:33;74365.72;;;-142.13;73.00
11712;BME280;5912;51.034;6.984;2023-02-15T06:42:58;74331.50;;;-142.13;72.15
11712;BME280;5912;51.034;6.984;2023-02-15T06:45:30;74031.69;;;-142.13;72.27
11712;BME280;5912;51.034;6.984;2023-02-15T06:47:55;74144.38;;;-142.13;73.10
11712;BME280;5912;51.034;6.984;2023-02-15T06:50:21;74152.41;;;-142.13;72.93
11712;BME280;5912;51.034;6.984;2023-02-15T06:52:46;73707.75;;;-142.13;72.72
11712;BME280;5912;51.034;6.984;2023-02-15T06:55:11;74337.53;;;-142.13;72.73
11712;BME280;5912;51.034;6.984;2023-02-15T06:57:36;74224.84;;;-142.13;72.16
11712;BME280;5912;51.034;6.984;2023-02-15T07:00:03;74092.06;;;-142.13;72.55
11712;BME280;5912;51.034;6.984;2023-02-15T07:02:30;74192.66;;;-142.13;72.38
11712;BME280;5912;51.034;6.984;2023-02-15T07:04:56;74693.72;;;-142.13;72.64
11712;BME280;5912;51.034;6.984;2023-02-15T07:07:21;74520.66;;;-142.13;72.22
11712;BME280;5912;51.034;6.984;2023-02-15T07:09:47;74265.09;;;-142.13;71.99
11712;BME280;5912;51.034;6.984;2023-02-15T07:12:12;74864.78;;;-142.13;71.71
11712;BME280;5912;51.034;6.984;2023-02-15T07:14:56;74911.06;;;-142.13;71.61
11712;BME280;5912;51.034;6.984;2023-02-15T07:17:23;74975.47;;;-142.13;71.93
11712;BME280;5912;51.034;6.984;2023-02-15T07:19:48;75009.69;;;-142.13;72.05
11712;BME280;5912;51.034;6.984;2023-02-15T07:22:13;74993.59;;;-142.13;71.47
11712;BME280;5912;51.034;6.984;2023-02-15T07:24:39;74854.72;;;-142.13;72.19
11712;BME280;5912;51.034;6.984;2023-02-15T07:27:06;74711.84;;;-142.13;71.70
11712;BME280;5912;51.034;6.984;2023-02-15T07:29:32;74744.03;;;-142.13;72.45
11712;BME280;5912;51.034;6.984;2023-02-15T07:31:57;74876.88;;;-142.13;72.20
11712;BME280;5912;51.034;6.984;2023-02-15T07:34:22;74424.06;;;-142.13;72.21
11712;BME280;5912;51.034;6.984;2023-02-15T07:36:50;74661.53;;;-142.13;71.33
11712;BME280;5912;51.034;6.984;2023-02-15T07:39:15;74776.25;;;-142.13;71.29
11712;BME280;5912;51.034;6.984;2023-02-15T07:41:41;74711.84;;;-142.13;71.23
11712;BME280;5912;51.034;6.984;2023-02-15T07:44:11;74995.59;;;-142.13;71.18
11712;BME280;5912;51.034;6.984;2023-02-15T07:46:37;75390.09;;;-142.13;71.10
11712;BME280;5912;51.034;6.984;2023-02-15T07:49:02;75663.84;;;-142.13;70.44
11712;BME280;5912;51.034;6.984;2023-02-15T07:51:28;75573.25;;;-142.13;70.11
11712;BME280;5912;51.034;6.984;2023-02-15T07:53:54;75392.09;;;-142.13;69.76
11712;BME280;5912;51.034;6.984;2023-02-15T07:56:20;75526.97;;;-142.13;69.93
11712;BME280;5912;51.034;6.984;2023-02-15T07:58:45;75663.84;;;-142.13;69.77
11712;BME280;5912;51.034;6.984;2023-02-15T08:01:22;75607.47;;;-142.13;69.67
11712;BME280;5912;51.034;6.984;2023-02-15T08:03:48;75698.06;;;-142.13;69.11
11712;BME280;5912;51.034;6.984;2023-02-15T08:06:13;75545.06;;;-142.13;69.04
11712;BME280;5912;51.034;6.984;2023-02-15T08:08:40;75716.19;;;-142.13;69.08
11712;BME280;5912;51.034;6.984;2023-02-15T08:19:04;76048.31;;;-142.13;67.87
11712;BME280;5912;51.034;6.984;2023-02-15T08:21:31;76106.72;;;-142.13;67.84
11712;BME280;5912;51.034;6.984;2023-02-15T08:23:58;76163.06;;;-142.13;67.68
11712;BME280;5912;51.034;6.984;2023-02-15T08:26:24;76229.50;;;-142.13;67.18
11712;BME280;5912;51.034;6.984;2023-02-15T08:28:59;76283.88;;;-142.13;66.71
11712;BME280;5912;51.034;6.984;2023-02-15T08:31:25;76527.47;;;-142.13;66.27
11712;BME280;5912;51.034;6.984;2023-02-15T08:33:52;76549.63;;;-142.13;66.24
11712;BME280;5912;51.034;6.984;2023-02-15T08:36:20;76608.00;;;-142.13;65.66
11712;BME280;5912;51.034;6.984;2023-02-15T08:38:45;76831.50;;;-142.13;64.30
11712;BME280;5912;51.034;6.984;2023-02-15T08:41:31;76978.50;;;-142.13;63.00
11712;BME280;5912;51.034;6.984;2023-02-15T08:43:59;77127.50;;;-142.13;62.66
11712;BME280;5912;51.034;6.984;2023-02-15T08:46:30;77242.28;;;-142.13;61.30
11712;BME280;5912;51.034;6.984;2023-02-15T08:48:56;77347.00;;;-142.13;59.94
11712;BME280;5912;51.034;6.984;2023-02-15T08:51:26;77453.72;;;-142.13;58.93
11712;BME280;5912;51.034;6.984;2023-02-15T08:53:53;77526.22;;;-142.13;57.72
11712;BME280;5912;51.034;6.984;2023-02-15T08:56:27;77600.75;;;-142.13;56.89
11712;BME280;5912;51.034;6.984;2023-02-15T08:58:54;77657.13;;;-142.13;55.69
11712;BME280;5912;51.034;6.984;2023-02-15T09:01:23;77683.31;;;-142.13;54.94
11712;BME280;5912;51.034;6.984;2023-02-15T09:03:50;77693.38;;;-142.13;54.96
11712;BME280;5912;51.034;6.984;2023-02-15T09:06:19;77699.44;;;-142.13;53.82
11712;BME280;5912;51.034;6.984;2023-02-15T09:08:45;77751.78;;;-142.13;52.88
11712;BME280;5912;51.034;6.984;2023-02-15T09:11:13;77840.41;;;-142.13;51.10
11712;BME280;5912;51.034;6.984;2023-02-15T09:13:42;77848.47;;;-142.13;50.61
11712;BME280;5912;51.034;6.984;2023-02-15T09:16:09;77834.34;;;-142.13;50.87
11712;BME280;5912;51.034;6.984;2023-02-15T09:18:38;77862.56;;;-142.13;48.63
11712;BME280;5912;51.034;6.984;2023-02-15T09:21:17;77860.53;;;-142.13;48.68
11712;BME280;5912;51.034;6.984;2023-02-15T09:23:46;77886.72;;;-142.13;46.82
11712;BME280;5912;51.034;6.984;2023-02-15T09:26:13;77888.75;;;-142.13;46.93
11712;BME280;5912;51.034;6.984;2023-02-15T09:28:39;77880.69;;;-142.13;47.21
11712;BME280;5912;51.034;6.984;2023-02-15T09:31:13;77856.50;;;-142.13;47.32
11712;BME280;5912;51.034;6.984;2023-02-15T09:33:39;77842.41;;;-142.13;46.05
11712;BME280;5912;51.034;6.984;2023-02-15T09:36:14;77832.34;;;-142.13;45.32
11712;BME280;5912;51.034;6.984;2023-02-15T09:38:39;77816.22;;;-142.13;45.46
11712;BME280;5912;51.034;6.984;2023-02-15T09:46:35;77723.59;;;-142.13;43.05
11712;BME280;5912;51.034;6.984;2023-02-15T09:49:14;77703.44;;;-142.13;42.57
11712;BME280;5912;51.034;6.984;2023-02-15T09:51:54;77685.31;;;-142.13;41.73
11712;BME280;5912;51.034;6.984;2023-02-15T09:54:37;77661.16;;;-142.13;41.92
11712;BME280;5912;51.034;6.984;2023-02-15T09:57:27;77622.91;;;-142.13;41.25
11712;BME280;5912;51.034;6.984;2023-02-15T10:00:29;77618.88;;;-142.13;40.76
11712;BME280;5912;51.034;6.984;2023-02-15T10:03:04;77594.69;;;-142.13;40.38
11712;BME280;5912;51.034;6.984;2023-02-15T10:06:01;77568.53;;;-142.13;40.59
11712;BME280;5912;51.034;6.984;2023-02-15T10:19:59;77487.97;;;-142.13;39.01
11712;BME280;5912;51.034;6.984;2023-02-15T10:25:22;77393.31;;;-142.13;37.65
11712;BME280;5912;51.034;6.984;2023-02-15T10:27:51;77351.03;;;-142.13;36.97
11712;BME280;5912;51.034;6.984;2023-02-15T10:30:38;77312.75;;;-142.13;37.08
11712;BME280;5912;51.034;6.984;2023-02-15T10:33:21;77258.41;;;-142.13;36.07
11712;BME280;5912;51.034;6.984;2023-02-15T10:50:00;76869.75;;;-142.13;34.28
11712;BME280;5912;51.034;6.984;2023-02-15T10:55:18;76775.13;;;-142.13;33.96
11712;BME280;5912;51.034;6.984;2023-02-15T10:57:55;76728.81;;;-142.13;33.47
11712;BME280;5912;51.034;6.984;2023-02-15T11:00:37;76728.81;;;-142.13;33.59
11712;BME280;5912;51.034;6.984;2023-02-15T11:08:32;76642.25;;;-142.13;33.60
11712;BME280;5912;51.034;6.984;2023-02-15T11:11:02;76603.97;;;-142.13;33.37
11712;BME280;5912;51.034;6.984;2023-02-15T11:13:33;76557.69;;;-142.13;32.99
11712;BME280;5912;51.034;6.984;2023-02-15T11:16:04;76513.38;;;-142.13;33.50
11712;BME280;5912;51.034;6.984;2023-02-15T11:20:57;76487.22;;;-142.13;32.94
11712;BME280;5912;51.034;6.984;2023-02-15T11:23:27;76465.06;;;-142.13;33.11
11712;BME280;5912;51.034;6.984;2023-02-15T11:26:01;76475.13;;;-142.13;33.63
11712;BME280;5912;51.034;6.984;2023-02-15T11:28:55;76481.16;;;-142.13;33.52
11712;BME280;5912;51.034;6.984;2023-02-15T11:31:24;76491.25;;;-142.13;33.18
11712;BME280;5912;51.034;6.984;2023-02-15T11:34:05;76491.25;;;-142.13;33.42
11712;BME280;5912;51.034;6.984;2023-02-15T11:36:40;76483.19;;;-142.13;33.09
11712;BME280;5912;51.034;6.984;2023-02-15T11:39:12;76446.94;;;-142.13;32.55
11712;BME280;5912;51.034;6.984;2023-02-15T11:41:49;76624.13;;;-142.13;31.76
11712;BME280;5912;51.034;6.984;2023-02-15T11:46:42;76720.75;;;-142.13;31.68
11712;BME280;5912;51.034;6.984;2023-02-15T11:49:25;76769.09;;;-142.13;31.63
11712;BME280;5912;51.034;6.984;2023-02-15T11:51:53;76779.16;;;-142.13;31.97
11712;BME280;5912;51.034;6.984;2023-02-15T11:54:23;76805.31;;;-142.13;31.71
11712;BME280;5912;51.034;6.984;2023-02-15T11:56:50;76817.41;;;-142.13;31.92
11712;BME280;5912;51.034;6.984;2023-02-15T11:59:27;76797.28;;;-142.13;32.08
11712;BME280;5912;51.034;6.984;2023-02-15T12:01:54;76769.09;;;-142.13;31.91
11712;BME280;5912;51.034;6.984;2023-02-15T12:04:38;76757.00;;;-142.13;31.51
11712;BME280;5912;51.034;6.984;2023-02-15T12:07:27;76732.84;;;-142.13;31.71
11712;BME280;5912;51.034;6.984;2023-02-15T12:12:43;76718.75;;;-142.13;31.56
11712;BME280;5912;51.034;6.984;2023-02-15T12:15:11;76732.84;;;-142.13;30.84
11712;BME280;5912;51.034;6.984;2023-02-15T12:17:50;76748.94;;;-142.13;30.98
11712;BME280;5912;51.034;6.984;2023-02-15T12:23:05;76777.13;;;-142.13;30.73
11712;BME280;5912;51.034;6.984;2023-02-15T12:28:36;76893.94;;;-142.13;32.18
11712;BME280;5912;51.034;6.984;2023-02-15T12:31:09;76956.34;;;-142.13;32.76
11712;BME280;5912;51.034;6.984;2023-02-15T12:33:39;77006.69;;;-142.13;33.19
11712;BME280;5912;51.034;6.984;2023-02-15T12:36:25;77063.06;;;-142.13;33.92
11712;BME280;5912;51.034;6.984;2023-02-15T12:41:38;77107.38;;;-142.13;35.06
11712;BME280;5912;51.034;6.984;2023-02-15T12:44:27;77123.47;;;-142.13;35.06
11712;BME280;5912;51.034;6.984;2023-02-15T12:47:04;77151.66;;;-142.13;35.23
11712;BME280;5912;51.034;6.984;2023-02-15T12:49:34;77161.72;;;-142.13;35.77
11712;BME280;5912;51.034;6.984;2023-02-15T12:52:02;77175.84;;;-142.13;36.22
11712;BME280;5912;51.034;6.984;2023-02-15T12:54:32;77185.91;;;-142.13;36.23
11712;BME280;5912;51.034;6.984;2023-02-15T12:56:58;77202.00;;;-142.13;36.19
11712;BME280;5912;51.034;6.984;2023-02-15T12:59:24;77222.16;;;-142.13;36.51
11712;BME280;5912;51.034;6.984;2023-02-15T13:01:51;77228.19;;;-142.13;36.88
11712;BME280;5912;51.034;6.984;2023-02-15T13:04:23;77228.19;;;-142.13;36.85
11712;BME280;5912;51.034;6.984;2023-02-15T13:06:52;77220.13;;;-142.13;36.95
11712;BME280;5912;51.034;6.984;2023-02-15T13:11:53;77216.09;;;-142.13;37.41
11712;BME280;5912;51.034;6.984;2023-02-15T13:14:21;77206.03;;;-142.13;36.88
11712;BME280;5912;51.034;6.984;2023-02-15T13:16:50;77195.97;;;-142.13;36.92
11712;BME280;5912;51.034;6.984;2023-02-15T13:19:31;77191.94;;;-142.13;36.65
11712;BME280;5912;51.034;6.984;2023-02-15T13:22:02;77185.91;;;-142.13;37.15
11712;BME280;5912;51.034;6.984;2023-02-15T13:24:36;77171.81;;;-142.13;37.31
11712;BME280;5912;51.034;6.984;2023-02-15T13:27:04;77163.75;;;-142.13;36.59
11712;BME280;5912;51.034;6.984;2023-02-15T13:29:33;77143.63;;;-142.13;36.58
11712;BME280;5912;51.034;6.984;2023-02-15T13:32:07;77131.53;;;-142.13;36.34
11712;BME280;5912;51.034;6.984;2023-02-15T13:34:38;77125.50;;;-142.13;36.55
11712;BME280;5912;51.034;6.984;2023-02-15T13:39:55;77065.09;;;-142.13;36.63
11712;BME280;5912;51.034;6.984;2023-02-15T13:42:47;76958.34;;;-142.13;35.70
11712;BME280;5912;51.034;6.984;2023-02-15T13:50:54;76646.25;;;-142.13;31.09
11712;BME280;5912;51.034;6.984;2023-02-15T13:59:43;76440.91;;;-142.13;29.29
11712;BME280;5912;51.034;6.984;2023-02-15T14:08:29;76400.63;;;-142.13;28.22
11712;BME280;5912;51.034;6.984;2023-02-15T14:11:05;76354.34;;;-142.13;27.99
11712;BME280;5912;51.034;6.984;2023-02-15T14:19:29;76324.13;;;-142.13;27.62
11712;BME280;5912;51.034;6.984;2023-02-15T14:22:02;76338.22;;;-142.13;27.82
11712;BME280;5912;51.034;6.984;2023-02-15T14:24:38;76340.25;;;-142.13;28.40
11712;BME280;5912;51.034;6.984;2023-02-15T14:29:59;76374.47;;;-142.13;28.03
11712;BME280;5912;51.034;6.984;2023-02-15T14:32:26;76436.88;;;-142.13;28.24
11712;BME280;5912;51.034;6.984;2023-02-15T14:34:57;76499.28;;;-142.13;28.44
11712;BME280;5912;51.034;6.984;2023-02-15T14:43:11;76728.81;;;-142.13;30.58
11712;BME280;5912;51.034;6.984;2023-02-15T14:45:52;76769.09;;;-142.13;31.17
11712;BME280;5912;51.034;6.984;2023-02-15T14:48:54;76827.47;;;-142.13;31.25
11712;BME280;5912;51.034;6.984;2023-02-15T14:51:53;76855.66;;;-142.13;32.38
11712;BME280;5912;51.034;6.984;2023-02-15T15:02:03;76966.41;;;-142.13;33.45
11712;BME280;5912;51.034;6.984;2023-02-15T15:04:36;77002.66;;;-142.13;33.95
11712;BME280;5912;51.034;6.984;2023-02-15T15:09:39;77079.19;;;-142.13;34.89
11712;BME280;5912;51.034;6.984;2023-02-15T15:14:46;77135.56;;;-142.13;36.11
11712;BME280;5912;51.034;6.984;2023-02-15T15:20:00;77167.78;;;-142.13;36.45
11712;BME280;5912;51.034;6.984;2023-02-15T15:22:27;77185.91;;;-142.13;36.75
11712;BME280;5912;51.034;6.984;2023-02-15T15:27:52;77208.06;;;-142.13;37.09
11712;BME280;5912;51.034;6.984;2023-02-15T15:35:33;77256.38;;;-142.13;37.55
11712;BME280;5912;51.034;6.984;2023-02-15T15:41:19;77290.63;;;-142.13;38.26
11712;BME280;5912;51.034;6.984;2023-02-15T15:46:54;77320.81;;;-142.13;38.83
11712;BME280;5912;51.034;6.984;2023-02-15T15:49:24;77338.94;;;-142.13;39.10